Seaspan Chiwan — VRBH3 — position and weather

sailwx.info

Track history (hours):
 
Tides and Currents Weather Stations Pressure Air Temp Water Temp Dewpoint Dewpoint Depression Visibility Wind Speed Wind Dir Waves Ship Positions

Seaspan Chiwan

Last reported at 2015-Jul-03 11:33 UTC. Time now 2015-Jul-03 12:21 UTC.
Position N 39°25' W 000°16'.

Length 260 m; draft 10.6 m.

Type: Cargo ship. MMSI: 477014500.

Date/timePositionNaut miles runAvg speedWind from/ knotsBaromVisibWave heightAir tempDewpointWater temp
2015-Jul-03 11:33N 39°25' W 000°16'3 3.1
2015-Jul-03 10:33N 39°24' W 000°12'2914.1
2015-Jul-03 08:30N 39°01' E 000°11'1516.3
2015-Jul-03 07:33N 38°49' E 000°24'1515.4
2015-Jul-03 06:33N 38°34' E 000°21'1717.3
2015-Jul-03 05:33N 38°20' E 000°09'1717.3
2015-Jul-03 04:33N 38°05' W 000°04'1717.6
2015-Jul-03 03:33N 37°51' W 000°15'1817.9
2015-Jul-03 02:33N 37°36' W 000°28'1817.5
2015-Jul-03 01:33N 37°24' W 000°44'1817.8
2015-Jul-03 00:32N 37°12' W 001°01'4317.6
2015-Jul-02 22:06N 36°43' W 001°41'1417.3
2015-Jul-02 21:18N 36°34' W 001°54'1317.1
2015-Jul-02 20:33N 36°25' W 002°05'1716.9
2015-Jul-02 19:33N 36°20' W 002°25'1717.5
2015-Jul-02 18:33N 36°18' W 002°47'1818.4
2015-Jul-02 17:33N 36°15' W 003°09'1919.1
2015-Jul-02 16:33N 36°11' W 003°32'8120.3
2015-Jul-02 12:33N 36°00' W 005°12'16 2.0
2015-Jul-02 04:12N 35°55' W 005°31'21 3.5
2015-Jul-01 22:13N 35°54' W 005°57'13117.1
2015-Jul-01 14:33N 36°22' W 008°35'1919.0
2015-Jul-01 13:33N 36°28' W 008°57'4217.9
2015-Jul-01 11:13N 36°55' W 009°37'3518.4
2015-Jul-01 09:20N 37°29' W 009°41'1518.9
2015-Jul-01 08:33N 37°44' W 009°41'1919.4
2015-Jul-01 07:33N 38°04' W 009°41'1918.6
2015-Jul-01 06:33N 38°22' W 009°38'1817.7
2015-Jul-01 05:34N 38°37' W 009°25'1211.8
2015-Jul-01 04:33N 38°41' W 009°12'1 1.4
2015-Jul-01 03:32N 38°42' W 009°10'0 0.0
2015-Jul-01 02:33N 38°42' W 009°10'0 0.0
2015-Jul-01 01:33N 38°42' W 009°10'0 0.0
2015-Jul-01 00:33N 38°42' W 009°10'0 0.0
2015-Jun-30 23:33N 38°42' W 009°10'0 0.0
2015-Jun-30 22:33N 38°42' W 009°10'0 0.0
2015-Jun-30 21:33N 38°42' W 009°10'0 0.0
2015-Jun-30 20:33N 38°42' W 009°10'0 0.0
2015-Jun-30 19:33N 38°42' W 009°10'0 0.0
2015-Jun-30 18:33N 38°42' W 009°10'0 0.0
2015-Jun-30 17:33N 38°42' W 009°10'0 0.0
2015-Jun-30 16:33N 38°42' W 009°10'0 0.0
2015-Jun-30 15:33N 38°42' W 009°10'7 6.9
2015-Jun-30 14:33N 38°40' W 009°18'8 7.9
2015-Jun-30 13:33N 38°39' W 009°29'1212.2
2015-Jun-30 12:33N 38°35' W 009°43'1616.2
2015-Jun-30 11:33N 38°33' W 010°04'1716.4
2015-Jun-30 10:32N 38°31' W 010°25'1616.5
2015-Jun-30 09:33N 38°29' W 010°46'1716.8
2015-Jun-30 08:33N 38°27' W 011°07'1717.0
2015-Jun-30 07:33N 38°26' W 011°29'1717.5
2015-Jun-30 06:33N 38°24' W 011°51'1817.4
2015-Jun-30 05:31N 38°21' W 012°14'1717.7
2015-Jun-30 04:33N 38°20' W 012°35'1818.0
2015-Jun-30 03:33N 38°18' W 012°58'1817.8
2015-Jun-30 02:33N 38°15' W 013°20'1818.0
2015-Jun-30 01:33N 38°13' W 013°43'1717.5
2015-Jun-30 00:33N 38°11' W 014°05'1717.5
2015-Jun-29 23:33N 38°09' W 014°27'1817.7
2015-Jun-29 22:33N 38°07' W 014°50'1817.6
2015-Jun-29 21:33N 38°05' W 015°12'1817.5
2015-Jun-29 20:33N 38°02' W 015°34'1717.4
2015-Jun-29 19:33N 37°59' W 015°55'1717.3
2015-Jun-29 18:33N 37°56' W 016°17'1717.4
2015-Jun-29 17:33N 37°53' W 016°39'1817.5
2015-Jun-29 16:33N 37°50' W 017°01'1817.8
2015-Jun-29 15:33N 37°47' W 017°23'1817.9
2015-Jun-29 14:33N 37°44' W 017°45'1817.8
2015-Jun-29 13:32N 37°40' W 018°08'1817.8
2015-Jun-29 12:33N 37°37' W 018°29'1817.7
2015-Jun-29 11:33N 37°34' W 018°52'6017.6
2015-Jun-29 08:06N 37°23' W 020°07'4517.5
2015-Jun-29 05:32N 37°14' W 021°02'1817.5
2015-Jun-29 04:30N 37°10' W 021°24'5717.5
2015-Jun-29 01:16N 36°57' W 022°33'1317.9
2015-Jun-29 00:33N 36°54' W 022°49'1717.3
2015-Jun-28 23:33N 36°50' W 023°10'1817.7
2015-Jun-28 22:33N 36°46' W 023°31'1817.9
2015-Jun-28 21:33N 36°42' W 023°53'1817.9
2015-Jun-28 20:33N 36°39' W 024°15'1817.7
2015-Jun-28 19:33N 36°35' W 024°37'1817.6
2015-Jun-28 18:33N 36°30' W 024°58'1817.6
2015-Jun-28 17:33N 36°26' W 025°19'1817.9
2015-Jun-28 16:33N 36°22' W 025°41'1818.1
2015-Jun-28 15:33N 36°17' W 026°02'1818.2
2015-Jun-28 14:33N 36°12' W 026°24'1817.8
2015-Jun-28 13:33N 36°08' W 026°45'1817.7
2015-Jun-28 12:33N 36°04' W 027°07'1017.3
2015-Jun-28 12:00N 36°00' W 027°18'1018.1 240 / 151027.010.8 0.525.022.0
2015-Jun-28 11:28N 35°59' W 027°30'2317.8
2015-Jun-28 10:11N 35°53' W 027°57'1318.1
2015-Jun-28 09:27N 35°50' W 028°13'4017.6
2015-Jun-28 07:11N 35°40' W 029°01'1117.5
2015-Jun-28 06:34N 35°37' W 029°13'66215.6
2015-Jun-26 12:00N 31°18' W 041°24'30625.5 260 / 131028.0 5.4 26.023.1
2015-Jun-26 00:00N 29°54' W 047°06'21618.0 270 / 91027.0 5.4 26.019.9
2015-Jun-25 12:00N 28°18' W 050°48'10717.8 240 / 71027.0 5.4 27.022.6
2015-Jun-25 06:00N 27°30' W 052°36'21417.8 250 / 41028.010.8 27.022.630.0
2015-Jun-24 18:00N 25°48' W 056°06'   250 / 41029.010.8 31.025.430.0
Track history (hours):
 
Tides and Currents Weather Stations Pressure Air Temp Water Temp Dewpoint Dewpoint Depression Visibility Wind Speed Wind Dir Waves Ship Positions

Seaspan Chiwan

Last reported at 2015-Jul-03 11:33 UTC. Time now 2015-Jul-03 12:21 UTC.
Position N 39°25' W 000°16'.

Length 260 m; draft 10.6 m.

Type: Cargo ship. MMSI: 477014500.

Date/timePositionNaut miles runAvg speedWind from/ knotsBaromVisibWave heightAir tempDewpointWater temp
2015-Jul-03 11:33N 39°25' W 000°16'3 3.1
2015-Jul-03 10:33N 39°24' W 000°12'2914.1
2015-Jul-03 08:30N 39°01' E 000°11'1516.3
2015-Jul-03 07:33N 38°49' E 000°24'1515.4
2015-Jul-03 06:33N 38°34' E 000°21'1717.3
2015-Jul-03 05:33N 38°20' E 000°09'1717.3
2015-Jul-03 04:33N 38°05' W 000°04'1717.6
2015-Jul-03 03:33N 37°51' W 000°15'1817.9
2015-Jul-03 02:33N 37°36' W 000°28'1817.5
2015-Jul-03 01:33N 37°24' W 000°44'1817.8
2015-Jul-03 00:32N 37°12' W 001°01'4317.6
2015-Jul-02 22:06N 36°43' W 001°41'1417.3
2015-Jul-02 21:18N 36°34' W 001°54'1317.1
2015-Jul-02 20:33N 36°25' W 002°05'1716.9
2015-Jul-02 19:33N 36°20' W 002°25'1717.5
2015-Jul-02 18:33N 36°18' W 002°47'1818.4
2015-Jul-02 17:33N 36°15' W 003°09'1919.1
2015-Jul-02 16:33N 36°11' W 003°32'8120.3
2015-Jul-02 12:33N 36°00' W 005°12'16 2.0
2015-Jul-02 04:12N 35°55' W 005°31'21 3.5
2015-Jul-01 22:13N 35°54' W 005°57'13117.1
2015-Jul-01 14:33N 36°22' W 008°35'1919.0
2015-Jul-01 13:33N 36°28' W 008°57'4217.9
2015-Jul-01 11:13N 36°55' W 009°37'3518.4
2015-Jul-01 09:20N 37°29' W 009°41'1518.9
2015-Jul-01 08:33N 37°44' W 009°41'1919.4
2015-Jul-01 07:33N 38°04' W 009°41'1918.6
2015-Jul-01 06:33N 38°22' W 009°38'1817.7
2015-Jul-01 05:34N 38°37' W 009°25'1211.8
2015-Jul-01 04:33N 38°41' W 009°12'1 1.4
2015-Jul-01 03:32N 38°42' W 009°10'0 0.0
2015-Jul-01 02:33N 38°42' W 009°10'0 0.0
2015-Jul-01 01:33N 38°42' W 009°10'0 0.0
2015-Jul-01 00:33N 38°42' W 009°10'0 0.0
2015-Jun-30 23:33N 38°42' W 009°10'0 0.0
2015-Jun-30 22:33N 38°42' W 009°10'0 0.0
2015-Jun-30 21:33N 38°42' W 009°10'0 0.0
2015-Jun-30 20:33N 38°42' W 009°10'0 0.0
2015-Jun-30 19:33N 38°42' W 009°10'0 0.0
2015-Jun-30 18:33N 38°42' W 009°10'0 0.0
2015-Jun-30 17:33N 38°42' W 009°10'0 0.0
2015-Jun-30 16:33N 38°42' W 009°10'0 0.0
2015-Jun-30 15:33N 38°42' W 009°10'7 6.9
2015-Jun-30 14:33N 38°40' W 009°18'8 7.9
2015-Jun-30 13:33N 38°39' W 009°29'1212.2
2015-Jun-30 12:33N 38°35' W 009°43'1616.2
2015-Jun-30 11:33N 38°33' W 010°04'1716.4
2015-Jun-30 10:32N 38°31' W 010°25'1616.5
2015-Jun-30 09:33N 38°29' W 010°46'1716.8
2015-Jun-30 08:33N 38°27' W 011°07'1717.0
2015-Jun-30 07:33N 38°26' W 011°29'1717.5
2015-Jun-30 06:33N 38°24' W 011°51'1817.4
2015-Jun-30 05:31N 38°21' W 012°14'1717.7
2015-Jun-30 04:33N 38°20' W 012°35'1818.0
2015-Jun-30 03:33N 38°18' W 012°58'1817.8
2015-Jun-30 02:33N 38°15' W 013°20'1818.0
2015-Jun-30 01:33N 38°13' W 013°43'1717.5
2015-Jun-30 00:33N 38°11' W 014°05'1717.5
2015-Jun-29 23:33N 38°09' W 014°27'1817.7
2015-Jun-29 22:33N 38°07' W 014°50'1817.6
2015-Jun-29 21:33N 38°05' W 015°12'1817.5
2015-Jun-29 20:33N 38°02' W 015°34'1717.4
2015-Jun-29 19:33N 37°59' W 015°55'1717.3
2015-Jun-29 18:33N 37°56' W 016°17'1717.4
2015-Jun-29 17:33N 37°53' W 016°39'1817.5
2015-Jun-29 16:33N 37°50' W 017°01'1817.8
2015-Jun-29 15:33N 37°47' W 017°23'1817.9
2015-Jun-29 14:33N 37°44' W 017°45'1817.8
2015-Jun-29 13:32N 37°40' W 018°08'1817.8
2015-Jun-29 12:33N 37°37' W 018°29'1817.7
2015-Jun-29 11:33N 37°34' W 018°52'6017.6
2015-Jun-29 08:06N 37°23' W 020°07'4517.5
2015-Jun-29 05:32N 37°14' W 021°02'1817.5
2015-Jun-29 04:30N 37°10' W 021°24'5717.5
2015-Jun-29 01:16N 36°57' W 022°33'1317.9
2015-Jun-29 00:33N 36°54' W 022°49'1717.3
2015-Jun-28 23:33N 36°50' W 023°10'1817.7
2015-Jun-28 22:33N 36°46' W 023°31'1817.9
2015-Jun-28 21:33N 36°42' W 023°53'1817.9
2015-Jun-28 20:33N 36°39' W 024°15'1817.7
2015-Jun-28 19:33N 36°35' W 024°37'1817.6
2015-Jun-28 18:33N 36°30' W 024°58'1817.6
2015-Jun-28 17:33N 36°26' W 025°19'1817.9
2015-Jun-28 16:33N 36°22' W 025°41'1818.1
2015-Jun-28 15:33N 36°17' W 026°02'1818.2
2015-Jun-28 14:33N 36°12' W 026°24'1817.8
2015-Jun-28 13:33N 36°08' W 026°45'1817.7
2015-Jun-28 12:33N 36°04' W 027°07'1017.3
2015-Jun-28 12:00N 36°00' W 027°18'1018.1 240 / 151027.010.8 0.525.022.0
2015-Jun-28 11:28N 35°59' W 027°30'2317.8
2015-Jun-28 10:11N 35°53' W 027°57'1318.1
2015-Jun-28 09:27N 35°50' W 028°13'4017.6
2015-Jun-28 07:11N 35°40' W 029°01'1117.5
2015-Jun-28 06:34N 35°37' W 029°13'66215.6
2015-Jun-26 12:00N 31°18' W 041°24'30625.5 260 / 131028.0 5.4 26.023.1
2015-Jun-26 00:00N 29°54' W 047°06'21618.0 270 / 91027.0 5.4 26.019.9
2015-Jun-25 12:00N 28°18' W 050°48'10717.8 240 / 71027.0 5.4 27.022.6
2015-Jun-25 06:00N 27°30' W 052°36'21417.8 250 / 41028.010.8 27.022.630.0
2015-Jun-24 18:00N 25°48' W 056°06'   250 / 41029.010.8 31.025.430.0

Dump ship's entire track history